Kelvedon, United Kingdom
Current Conditions -  °F | °C
As of 12:50 PM on Friday 19 Dec 2014 (Local Time) from EGMC Reporting Station
Few Clouds Few Clouds  
Wind Chill: 42°   Ceiling: Unl
Heat Index: 48°   Visibility: 6mi
Dew Point: 34°   Wind: 16mph
Humidity: 57%   Direction: 270°W
Pressure: 29.97"   Gusts: NA
Location:  51.84°N, 0.71°E
Report Text: EGMC 191250Z 27014KT 9999 FEW028 09/01 Q1015
Loading
Personal Weather Stations






























Interactive Weather Map New forecast layout! Learn more

10-Day Weather Forecast

Advertisements
Track Severe Weather on mobile